sensor_id;sensor_type;location;lat;lon;timestamp;P1;durP1;ratioP1;P2;durP2;ratioP2
67861;SDS011;54665;51.462;6.698;2024-02-21T00:01:40;24.97;;;7.60;;
67861;SDS011;54665;51.462;6.698;2024-02-21T00:03:40;23.90;;;7.70;;
67861;SDS011;54665;51.462;6.698;2024-02-21T00:05:40;23.47;;;7.60;;
67861;SDS011;54665;51.462;6.698;2024-02-21T00:07:40;25.30;;;8.27;;
67861;SDS011;54665;51.462;6.698;2024-02-21T00:09:41;23.83;;;6.60;;
67861;SDS011;54665;51.462;6.698;2024-02-21T00:11:41;25.03;;;7.90;;
67861;SDS011;54665;51.462;6.698;2024-02-21T00:13:41;26.17;;;7.97;;
67861;SDS011;54665;51.462;6.698;2024-02-21T00:15:42;23.43;;;6.87;;
67861;SDS011;54665;51.462;6.698;2024-02-21T00:17:43;23.83;;;8.10;;
67861;SDS011;54665;51.462;6.698;2024-02-21T00:19:44;24.50;;;8.32;;
67861;SDS011;54665;51.462;6.698;2024-02-21T00:21:44;23.63;;;8.60;;
67861;SDS011;54665;51.462;6.698;2024-02-21T00:23:45;24.53;;;7.60;;
67861;SDS011;54665;51.462;6.698;2024-02-21T00:25:45;21.00;;;5.77;;
67861;SDS011;54665;51.462;6.698;2024-02-21T00:27:45;24.83;;;7.80;;
67861;SDS011;54665;51.462;6.698;2024-02-21T00:29:46;25.30;;;8.23;;
67861;SDS011;54665;51.462;6.698;2024-02-21T00:31:46;21.73;;;7.17;;
67861;SDS011;54665;51.462;6.698;2024-02-21T00:33:48;27.37;;;8.40;;
67861;SDS011;54665;51.462;6.698;2024-02-21T00:35:48;22.65;;;7.60;;
67861;SDS011;54665;51.462;6.698;2024-02-21T00:37:48;24.23;;;8.33;;
67861;SDS011;54665;51.462;6.698;2024-02-21T00:39:49;26.57;;;8.03;;
67861;SDS011;54665;51.462;6.698;2024-02-21T00:41:49;27.53;;;8.77;;
67861;SDS011;54665;51.462;6.698;2024-02-21T00:43:49;20.60;;;6.93;;
67861;SDS011;54665;51.462;6.698;2024-02-21T00:45:50;27.87;;;8.20;;
67861;SDS011;54665;51.462;6.698;2024-02-21T00:47:50;28.23;;;8.30;;
67861;SDS011;54665;51.462;6.698;2024-02-21T00:49:50;23.43;;;8.30;;
67861;SDS011;54665;51.462;6.698;2024-02-21T00:51:51;23.50;;;8.27;;
67861;SDS011;54665;51.462;6.698;2024-02-21T00:53:51;22.27;;;7.73;;
67861;SDS011;54665;51.462;6.698;2024-02-21T00:55:51;25.83;;;6.97;;
67861;SDS011;54665;51.462;6.698;2024-02-21T00:57:51;24.40;;;7.57;;
67861;SDS011;54665;51.462;6.698;2024-02-21T00:59:52;22.93;;;7.33;;
67861;SDS011;54665;51.462;6.698;2024-02-21T01:01:52;24.70;;;8.50;;
67861;SDS011;54665;51.462;6.698;2024-02-21T01:03:52;23.52;;;8.13;;
67861;SDS011;54665;51.462;6.698;2024-02-21T01:05:53;24.13;;;8.37;;
67861;SDS011;54665;51.462;6.698;2024-02-21T01:07:53;24.60;;;8.17;;
67861;SDS011;54665;51.462;6.698;2024-02-21T01:09:53;27.27;;;8.23;;
67861;SDS011;54665;51.462;6.698;2024-02-21T01:11:54;21.93;;;8.30;;
67861;SDS011;54665;51.462;6.698;2024-02-21T01:13:54;23.30;;;7.67;;
67861;SDS011;54665;51.462;6.698;2024-02-21T01:15:55;24.80;;;7.50;;
67861;SDS011;54665;51.462;6.698;2024-02-21T01:17:55;24.50;;;7.87;;
67861;SDS011;54665;51.462;6.698;2024-02-21T01:19:56;27.30;;;8.13;;
67861;SDS011;54665;51.462;6.698;2024-02-21T01:21:56;24.10;;;7.70;;
67861;SDS011;54665;51.462;6.698;2024-02-21T01:23:56;20.87;;;7.10;;
67861;SDS011;54665;51.462;6.698;2024-02-21T01:25:56;24.67;;;8.47;;
67861;SDS011;54665;51.462;6.698;2024-02-21T01:27:57;23.95;;;8.13;;
67861;SDS011;54665;51.462;6.698;2024-02-21T01:29:57;25.70;;;7.90;;
67861;SDS011;54665;51.462;6.698;2024-02-21T01:31:57;24.97;;;6.83;;
67861;SDS011;54665;51.462;6.698;2024-02-21T01:33:58;23.00;;;6.57;;
67861;SDS011;54665;51.462;6.698;2024-02-21T01:35:58;21.80;;;6.83;;
67861;SDS011;54665;51.462;6.698;2024-02-21T01:37:58;22.40;;;7.67;;
67861;SDS011;54665;51.462;6.698;2024-02-21T01:39:58;19.17;;;5.60;;
67861;SDS011;54665;51.462;6.698;2024-02-21T01:41:59;19.53;;;7.50;;
67861;SDS011;54665;51.462;6.698;2024-02-21T01:43:59;23.27;;;7.47;;
67861;SDS011;54665;51.462;6.698;2024-02-21T01:45:59;17.20;;;6.47;;
67861;SDS011;54665;51.462;6.698;2024-02-21T01:48:00;18.80;;;7.07;;
67861;SDS011;54665;51.462;6.698;2024-02-21T01:50:00;20.77;;;7.27;;
67861;SDS011;54665;51.462;6.698;2024-02-21T01:52:01;22.58;;;6.90;;
67861;SDS011;54665;51.462;6.698;2024-02-21T01:54:02;18.83;;;6.23;;
67861;SDS011;54665;51.462;6.698;2024-02-21T01:56:03;18.98;;;6.90;;
67861;SDS011;54665;51.462;6.698;2024-02-21T01:58:05;23.33;;;7.63;;
67861;SDS011;54665;51.462;6.698;2024-02-21T02:00:06;24.30;;;7.38;;
67861;SDS011;54665;51.462;6.698;2024-02-21T02:02:10;25.52;;;7.18;;
67861;SDS011;54665;51.462;6.698;2024-02-21T02:04:11;22.47;;;6.53;;
67861;SDS011;54665;51.462;6.698;2024-02-21T02:06:11;17.73;;;6.00;;
67861;SDS011;54665;51.462;6.698;2024-02-21T02:08:13;19.98;;;6.35;;
67861;SDS011;54665;51.462;6.698;2024-02-21T02:10:14;23.50;;;7.17;;
67861;SDS011;54665;51.462;6.698;2024-02-21T02:12:14;18.70;;;6.15;;
67861;SDS011;54665;51.462;6.698;2024-02-21T02:14:14;23.70;;;7.00;;
67861;SDS011;54665;51.462;6.698;2024-02-21T02:16:14;18.13;;;6.00;;
67861;SDS011;54665;51.462;6.698;2024-02-21T02:18:15;20.07;;;6.90;;
67861;SDS011;54665;51.462;6.698;2024-02-21T02:20:17;18.77;;;6.90;;
67861;SDS011;54665;51.462;6.698;2024-02-21T02:22:20;22.23;;;6.63;;
67861;SDS011;54665;51.462;6.698;2024-02-21T02:24:24;18.95;;;6.80;;
67861;SDS011;54665;51.462;6.698;2024-02-21T02:26:24;23.27;;;7.53;;
67861;SDS011;54665;51.462;6.698;2024-02-21T02:28:25;18.48;;;6.68;;
67861;SDS011;54665;51.462;6.698;2024-02-21T02:30:25;21.90;;;7.03;;
67861;SDS011;54665;51.462;6.698;2024-02-21T02:32:25;18.70;;;5.90;;
67861;SDS011;54665;51.462;6.698;2024-02-21T02:34:26;23.83;;;6.63;;
67861;SDS011;54665;51.462;6.698;2024-02-21T02:36:26;22.17;;;6.77;;
67861;SDS011;54665;51.462;6.698;2024-02-21T02:38:26;20.83;;;7.17;;
67861;SDS011;54665;51.462;6.698;2024-02-21T02:40:26;22.33;;;6.77;;
67861;SDS011;54665;51.462;6.698;2024-02-21T02:42:27;20.00;;;6.83;;
67861;SDS011;54665;51.462;6.698;2024-02-21T02:44:27;20.57;;;6.80;;
67861;SDS011;54665;51.462;6.698;2024-02-21T02:46:27;20.90;;;6.23;;
67861;SDS011;54665;51.462;6.698;2024-02-21T02:48:28;16.20;;;6.10;;
67861;SDS011;54665;51.462;6.698;2024-02-21T02:50:28;19.93;;;6.43;;
67861;SDS011;54665;51.462;6.698;2024-02-21T02:52:28;21.30;;;6.93;;
67861;SDS011;54665;51.462;6.698;2024-02-21T02:54:28;21.37;;;7.20;;
67861;SDS011;54665;51.462;6.698;2024-02-21T02:56:29;22.63;;;7.37;;
67861;SDS011;54665;51.462;6.698;2024-02-21T02:58:29;20.03;;;6.57;;
67861;SDS011;54665;51.462;6.698;2024-02-21T03:00:29;19.23;;;6.73;;
67861;SDS011;54665;51.462;6.698;2024-02-21T03:02:30;22.93;;;6.30;;
67861;SDS011;54665;51.462;6.698;2024-02-21T03:04:30;18.23;;;6.43;;
67861;SDS011;54665;51.462;6.698;2024-02-21T03:06:31;19.80;;;6.40;;
67861;SDS011;54665;51.462;6.698;2024-02-21T03:08:31;21.17;;;6.70;;
67861;SDS011;54665;51.462;6.698;2024-02-21T03:10:31;19.57;;;6.40;;
67861;SDS011;54665;51.462;6.698;2024-02-21T03:12:32;17.87;;;6.73;;
67861;SDS011;54665;51.462;6.698;2024-02-21T03:14:32;17.80;;;6.32;;
67861;SDS011;54665;51.462;6.698;2024-02-21T03:16:33;19.37;;;6.70;;
67861;SDS011;54665;51.462;6.698;2024-02-21T03:18:33;18.23;;;6.23;;
67861;SDS011;54665;51.462;6.698;2024-02-21T03:20:33;16.80;;;6.50;;
67861;SDS011;54665;51.462;6.698;2024-02-21T03:22:33;15.97;;;6.13;;
67861;SDS011;54665;51.462;6.698;2024-02-21T03:24:34;18.60;;;6.60;;
67861;SDS011;54665;51.462;6.698;2024-02-21T03:26:34;23.30;;;6.20;;
67861;SDS011;54665;51.462;6.698;2024-02-21T03:28:34;17.33;;;5.70;;
67861;SDS011;54665;51.462;6.698;2024-02-21T03:30:35;17.03;;;6.50;;
67861;SDS011;54665;51.462;6.698;2024-02-21T03:32:35;21.03;;;6.30;;
67861;SDS011;54665;51.462;6.698;2024-02-21T03:34:36;14.20;;;5.27;;
67861;SDS011;54665;51.462;6.698;2024-02-21T03:36:36;16.00;;;5.90;;
67861;SDS011;54665;51.462;6.698;2024-02-21T03:38:36;16.57;;;5.70;;
67861;SDS011;54665;51.462;6.698;2024-02-21T03:40:37;20.43;;;6.33;;
67861;SDS011;54665;51.462;6.698;2024-02-21T03:42:37;18.80;;;5.33;;
67861;SDS011;54665;51.462;6.698;2024-02-21T03:44:38;16.85;;;6.63;;
67861;SDS011;54665;51.462;6.698;2024-02-21T03:46:38;16.00;;;6.37;;
67861;SDS011;54665;51.462;6.698;2024-02-21T03:48:39;21.50;;;6.27;;
67861;SDS011;54665;51.462;6.698;2024-02-21T03:50:39;19.17;;;5.80;;
67861;SDS011;54665;51.462;6.698;2024-02-21T03:52:39;19.57;;;5.40;;
67861;SDS011;54665;51.462;6.698;2024-02-21T03:54:39;16.27;;;5.53;;
67861;SDS011;54665;51.462;6.698;2024-02-21T03:56:40;18.87;;;6.30;;
67861;SDS011;54665;51.462;6.698;2024-02-21T03:58:40;19.57;;;5.97;;
67861;SDS011;54665;51.462;6.698;2024-02-21T04:00:40;17.73;;;6.03;;
67861;SDS011;54665;51.462;6.698;2024-02-21T04:02:40;18.30;;;5.53;;
67861;SDS011;54665;51.462;6.698;2024-02-21T04:04:44;25.50;;;6.87;;
67861;SDS011;54665;51.462;6.698;2024-02-21T04:06:47;21.38;;;6.38;;
67861;SDS011;54665;51.462;6.698;2024-02-21T04:08:48;16.63;;;6.05;;
67861;SDS011;54665;51.462;6.698;2024-02-21T04:10:48;20.50;;;6.60;;
67861;SDS011;54665;51.462;6.698;2024-02-21T04:12:49;18.63;;;6.07;;
67861;SDS011;54665;51.462;6.698;2024-02-21T04:14:49;19.13;;;6.00;;
67861;SDS011;54665;51.462;6.698;2024-02-21T04:16:49;16.30;;;6.20;;
67861;SDS011;54665;51.462;6.698;2024-02-21T04:18:50;17.00;;;6.03;;
67861;SDS011;54665;51.462;6.698;2024-02-21T04:20:52;17.60;;;5.77;;
67861;SDS011;54665;51.462;6.698;2024-02-21T04:22:52;19.20;;;6.07;;
67861;SDS011;54665;51.462;6.698;2024-02-21T04:24:52;19.03;;;5.90;;
67861;SDS011;54665;51.462;6.698;2024-02-21T04:26:53;22.63;;;5.67;;
67861;SDS011;54665;51.462;6.698;2024-02-21T04:28:53;16.33;;;5.63;;
67861;SDS011;54665;51.462;6.698;2024-02-21T04:30:53;16.43;;;5.77;;
67861;SDS011;54665;51.462;6.698;2024-02-21T04:32:53;17.37;;;5.33;;
67861;SDS011;54665;51.462;6.698;2024-02-21T04:34:54;19.33;;;5.70;;
67861;SDS011;54665;51.462;6.698;2024-02-21T04:36:54;16.13;;;5.47;;
67861;SDS011;54665;51.462;6.698;2024-02-21T04:38:54;16.70;;;5.53;;
67861;SDS011;54665;51.462;6.698;2024-02-21T04:40:55;13.50;;;5.18;;
67861;SDS011;54665;51.462;6.698;2024-02-21T04:42:55;14.80;;;5.60;;
67861;SDS011;54665;51.462;6.698;2024-02-21T04:44:56;17.33;;;5.37;;
67861;SDS011;54665;51.462;6.698;2024-02-21T04:46:56;17.40;;;5.43;;
67861;SDS011;54665;51.462;6.698;2024-02-21T04:48:56;18.00;;;5.20;;
67861;SDS011;54665;51.462;6.698;2024-02-21T04:50:57;14.00;;;5.17;;
67861;SDS011;54665;51.462;6.698;2024-02-21T04:52:57;19.47;;;5.60;;
67861;SDS011;54665;51.462;6.698;2024-02-21T04:54:57;14.63;;;4.93;;
67861;SDS011;54665;51.462;6.698;2024-02-21T04:56:58;13.63;;;4.90;;
67861;SDS011;54665;51.462;6.698;2024-02-21T04:58:58;13.03;;;5.10;;
67861;SDS011;54665;51.462;6.698;2024-02-21T05:00:59;14.13;;;4.87;;
67861;SDS011;54665;51.462;6.698;2024-02-21T05:02:59;14.67;;;5.27;;
67861;SDS011;54665;51.462;6.698;2024-02-21T05:04:59;14.47;;;4.73;;
67861;SDS011;54665;51.462;6.698;2024-02-21T05:07:00;19.07;;;5.20;;
67861;SDS011;54665;51.462;6.698;2024-02-21T05:09:00;12.83;;;4.70;;
67861;SDS011;54665;51.462;6.698;2024-02-21T05:11:00;12.87;;;4.90;;
67861;SDS011;54665;51.462;6.698;2024-02-21T05:13:00;15.43;;;5.15;;
67861;SDS011;54665;51.462;6.698;2024-02-21T05:15:01;16.97;;;5.53;;
67861;SDS011;54665;51.462;6.698;2024-02-21T05:17:01;18.07;;;5.00;;
67861;SDS011;54665;51.462;6.698;2024-02-21T05:19:02;19.03;;;4.63;;
67861;SDS011;54665;51.462;6.698;2024-02-21T05:21:02;12.27;;;4.70;;
67861;SDS011;54665;51.462;6.698;2024-02-21T05:23:02;14.17;;;5.10;;
67861;SDS011;54665;51.462;6.698;2024-02-21T05:25:03;16.20;;;5.07;;
67861;SDS011;54665;51.462;6.698;2024-02-21T05:27:03;15.20;;;4.77;;
67861;SDS011;54665;51.462;6.698;2024-02-21T05:29:04;14.10;;;5.43;;
67861;SDS011;54665;51.462;6.698;2024-02-21T05:31:04;15.20;;;5.20;;
67861;SDS011;54665;51.462;6.698;2024-02-21T05:33:05;15.35;;;5.18;;
67861;SDS011;54665;51.462;6.698;2024-02-21T05:35:06;18.77;;;5.30;;
67861;SDS011;54665;51.462;6.698;2024-02-21T05:37:06;16.40;;;5.10;;
67861;SDS011;54665;51.462;6.698;2024-02-21T05:39:07;14.33;;;5.27;;
67861;SDS011;54665;51.462;6.698;2024-02-21T05:41:07;18.57;;;5.53;;
67861;SDS011;54665;51.462;6.698;2024-02-21T05:43:07;15.20;;;4.90;;
67861;SDS011;54665;51.462;6.698;2024-02-21T05:45:08;13.77;;;5.50;;
67861;SDS011;54665;51.462;6.698;2024-02-21T05:47:09;14.50;;;5.13;;
67861;SDS011;54665;51.462;6.698;2024-02-21T05:49:09;14.80;;;5.13;;
67861;SDS011;54665;51.462;6.698;2024-02-21T05:51:09;16.17;;;4.87;;
67861;SDS011;54665;51.462;6.698;2024-02-21T05:53:09;14.87;;;5.33;;
67861;SDS011;54665;51.462;6.698;2024-02-21T05:55:10;15.43;;;5.30;;
67861;SDS011;54665;51.462;6.698;2024-02-21T05:57:10;17.20;;;5.20;;
67861;SDS011;54665;51.462;6.698;2024-02-21T05:59:10;16.30;;;5.07;;
67861;SDS011;54665;51.462;6.698;2024-02-21T06:01:11;14.27;;;5.43;;
67861;SDS011;54665;51.462;6.698;2024-02-21T06:03:11;16.17;;;4.70;;
67861;SDS011;54665;51.462;6.698;2024-02-21T06:05:12;16.47;;;5.13;;
67861;SDS011;54665;51.462;6.698;2024-02-21T06:07:12;16.00;;;5.33;;
67861;SDS011;54665;51.462;6.698;2024-02-21T06:09:12;13.83;;;4.77;;
67861;SDS011;54665;51.462;6.698;2024-02-21T06:11:13;13.57;;;4.63;;
67861;SDS011;54665;51.462;6.698;2024-02-21T06:13:13;10.53;;;4.10;;
67861;SDS011;54665;51.462;6.698;2024-02-21T06:15:13;13.73;;;5.00;;
67861;SDS011;54665;51.462;6.698;2024-02-21T06:17:14;15.50;;;5.28;;
67861;SDS011;54665;51.462;6.698;2024-02-21T06:19:14;14.47;;;4.13;;
67861;SDS011;54665;51.462;6.698;2024-02-21T06:21:14;15.23;;;5.27;;
67861;SDS011;54665;51.462;6.698;2024-02-21T06:23:15;15.23;;;4.93;;
67861;SDS011;54665;51.462;6.698;2024-02-21T06:25:16;13.40;;;4.85;;
67861;SDS011;54665;51.462;6.698;2024-02-21T06:27:16;17.13;;;4.50;;
67861;SDS011;54665;51.462;6.698;2024-02-21T06:29:17;16.50;;;5.13;;
67861;SDS011;54665;51.462;6.698;2024-02-21T06:31:17;12.73;;;4.57;;
67861;SDS011;54665;51.462;6.698;2024-02-21T06:33:17;12.33;;;4.20;;
67861;SDS011;54665;51.462;6.698;2024-02-21T06:35:17;11.97;;;4.07;;
67861;SDS011;54665;51.462;6.698;2024-02-21T06:37:19;16.92;;;5.10;;
67861;SDS011;54665;51.462;6.698;2024-02-21T06:39:19;12.67;;;4.73;;
67861;SDS011;54665;51.462;6.698;2024-02-21T06:41:19;15.20;;;4.85;;
67861;SDS011;54665;51.462;6.698;2024-02-21T06:43:20;16.37;;;4.80;;
67861;SDS011;54665;51.462;6.698;2024-02-21T06:45:20;15.87;;;4.93;;
67861;SDS011;54665;51.462;6.698;2024-02-21T06:47:20;12.93;;;4.37;;
67861;SDS011;54665;51.462;6.698;2024-02-21T06:49:21;13.70;;;4.90;;
67861;SDS011;54665;51.462;6.698;2024-02-21T06:51:21;16.87;;;5.03;;
67861;SDS011;54665;51.462;6.698;2024-02-21T06:53:22;15.52;;;4.60;;
67861;SDS011;54665;51.462;6.698;2024-02-21T06:55:22;14.73;;;4.77;;
67861;SDS011;54665;51.462;6.698;2024-02-21T06:57:23;15.37;;;4.87;;
67861;SDS011;54665;51.462;6.698;2024-02-21T06:59:23;11.73;;;4.50;;
67861;SDS011;54665;51.462;6.698;2024-02-21T07:01:24;14.23;;;4.63;;
67861;SDS011;54665;51.462;6.698;2024-02-21T07:03:24;12.97;;;4.63;;
67861;SDS011;54665;51.462;6.698;2024-02-21T07:05:24;13.77;;;5.03;;
67861;SDS011;54665;51.462;6.698;2024-02-21T07:07:25;14.63;;;4.30;;
67861;SDS011;54665;51.462;6.698;2024-02-21T07:09:25;13.20;;;4.63;;
67861;SDS011;54665;51.462;6.698;2024-02-21T07:11:25;17.02;;;4.78;;
67861;SDS011;54665;51.462;6.698;2024-02-21T07:13:26;12.63;;;4.70;;
67861;SDS011;54665;51.462;6.698;2024-02-21T07:15:26;11.30;;;3.70;;
67861;SDS011;54665;51.462;6.698;2024-02-21T07:17:26;13.40;;;4.33;;
67861;SDS011;54665;51.462;6.698;2024-02-21T07:19:27;13.70;;;4.77;;
67861;SDS011;54665;51.462;6.698;2024-02-21T07:21:27;14.50;;;5.10;;
67861;SDS011;54665;51.462;6.698;2024-02-21T07:23:27;14.48;;;4.65;;
67861;SDS011;54665;51.462;6.698;2024-02-21T07:25:28;12.10;;;4.50;;
67861;SDS011;54665;51.462;6.698;2024-02-21T07:27:28;13.30;;;4.53;;
67861;SDS011;54665;51.462;6.698;2024-02-21T07:29:28;14.47;;;4.80;;
67861;SDS011;54665;51.462;6.698;2024-02-21T07:31:29;14.70;;;5.10;;
67861;SDS011;54665;51.462;6.698;2024-02-21T07:33:29;17.43;;;5.07;;
67861;SDS011;54665;51.462;6.698;2024-02-21T07:35:29;13.80;;;4.90;;
67861;SDS011;54665;51.462;6.698;2024-02-21T07:37:29;14.23;;;5.10;;
67861;SDS011;54665;51.462;6.698;2024-02-21T07:39:30;13.80;;;4.30;;
67861;SDS011;54665;51.462;6.698;2024-02-21T07:41:30;15.50;;;4.65;;
67861;SDS011;54665;51.462;6.698;2024-02-21T07:43:31;14.03;;;4.63;;
67861;SDS011;54665;51.462;6.698;2024-02-21T07:45:31;18.57;;;4.33;;
67861;SDS011;54665;51.462;6.698;2024-02-21T07:47:31;10.83;;;4.20;;
67861;SDS011;54665;51.462;6.698;2024-02-21T07:49:31;11.37;;;4.40;;
67861;SDS011;54665;51.462;6.698;2024-02-21T07:51:32;10.27;;;4.20;;
67861;SDS011;54665;51.462;6.698;2024-02-21T07:53:32;12.07;;;3.88;;
67861;SDS011;54665;51.462;6.698;2024-02-21T07:55:32;11.87;;;4.10;;
67861;SDS011;54665;51.462;6.698;2024-02-21T07:57:33;11.50;;;4.00;;
67861;SDS011;54665;51.462;6.698;2024-02-21T07:59:33;8.10;;;3.47;;
67861;SDS011;54665;51.462;6.698;2024-02-21T08:01:33;10.93;;;4.03;;
67861;SDS011;54665;51.462;6.698;2024-02-21T08:03:34;13.10;;;4.50;;
67861;SDS011;54665;51.462;6.698;2024-02-21T08:05:34;10.55;;;3.80;;
67861;SDS011;54665;51.462;6.698;2024-02-21T08:07:35;12.40;;;4.03;;
67861;SDS011;54665;51.462;6.698;2024-02-21T08:09:35;11.90;;;3.80;;
67861;SDS011;54665;51.462;6.698;2024-02-21T08:11:36;11.93;;;4.00;;
67861;SDS011;54665;51.462;6.698;2024-02-21T08:13:36;10.60;;;3.63;;
67861;SDS011;54665;51.462;6.698;2024-02-21T08:15:36;10.90;;;3.70;;
67861;SDS011;54665;51.462;6.698;2024-02-21T08:17:36;9.20;;;3.20;;
67861;SDS011;54665;51.462;6.698;2024-02-21T08:19:37;6.70;;;3.03;;
67861;SDS011;54665;51.462;6.698;2024-02-21T08:21:37;9.07;;;3.35;;
67861;SDS011;54665;51.462;6.698;2024-02-21T08:23:38;11.57;;;3.67;;
67861;SDS011;54665;51.462;6.698;2024-02-21T08:25:38;8.43;;;3.50;;
67861;SDS011;54665;51.462;6.698;2024-02-21T08:27:38;9.17;;;3.20;;
67861;SDS011;54665;51.462;6.698;2024-02-21T08:29:39;12.40;;;3.37;;
67861;SDS011;54665;51.462;6.698;2024-02-21T08:31:39;9.07;;;3.70;;
67861;SDS011;54665;51.462;6.698;2024-02-21T08:33:39;9.90;;;3.47;;
67861;SDS011;54665;51.462;6.698;2024-02-21T08:35:39;8.63;;;3.43;;
67861;SDS011;54665;51.462;6.698;2024-02-21T08:37:40;9.90;;;4.40;;
67861;SDS011;54665;51.462;6.698;2024-02-21T08:39:40;11.02;;;3.80;;
67861;SDS011;54665;51.462;6.698;2024-02-21T08:41:40;13.47;;;4.07;;
67861;SDS011;54665;51.462;6.698;2024-02-21T08:43:41;15.50;;;4.20;;
67861;SDS011;54665;51.462;6.698;2024-02-21T08:45:41;14.20;;;3.93;;
67861;SDS011;54665;51.462;6.698;2024-02-21T08:47:41;14.03;;;4.60;;
67861;SDS011;54665;51.462;6.698;2024-02-21T08:49:42;15.23;;;4.33;;
67861;SDS011;54665;51.462;6.698;2024-02-21T08:51:42;13.25;;;4.10;;
67861;SDS011;54665;51.462;6.698;2024-02-21T08:53:43;14.43;;;3.93;;
67861;SDS011;54665;51.462;6.698;2024-02-21T08:55:44;14.43;;;4.20;;
67861;SDS011;54665;51.462;6.698;2024-02-21T08:57:44;16.60;;;3.65;;
67861;SDS011;54665;51.462;6.698;2024-02-21T08:59:44;16.30;;;3.87;;
67861;SDS011;54665;51.462;6.698;2024-02-21T09:01:45;14.70;;;4.30;;
67861;SDS011;54665;51.462;6.698;2024-02-21T09:03:45;11.10;;;3.60;;
67861;SDS011;54665;51.462;6.698;2024-02-21T09:05:45;10.30;;;3.60;;
67861;SDS011;54665;51.462;6.698;2024-02-21T09:07:46;11.20;;;3.50;;
67861;SDS011;54665;51.462;6.698;2024-02-21T09:09:46;10.30;;;2.50;;
67861;SDS011;54665;51.462;6.698;2024-02-21T09:11:47;12.60;;;3.63;;
67861;SDS011;54665;51.462;6.698;2024-02-21T09:13:47;7.93;;;3.10;;
67861;SDS011;54665;51.462;6.698;2024-02-21T09:15:47;8.03;;;2.60;;
67861;SDS011;54665;51.462;6.698;2024-02-21T09:17:48;9.47;;;3.20;;
67861;SDS011;54665;51.462;6.698;2024-02-21T09:19:48;8.77;;;3.13;;
67861;SDS011;54665;51.462;6.698;2024-02-21T09:21:48;12.80;;;3.40;;
67861;SDS011;54665;51.462;6.698;2024-02-21T09:23:48;11.23;;;3.67;;
67861;SDS011;54665;51.462;6.698;2024-02-21T09:25:49;9.43;;;3.30;;
67861;SDS011;54665;51.462;6.698;2024-02-21T09:27:49;4.53;;;1.77;;
67861;SDS011;54665;51.462;6.698;2024-02-21T09:29:50;9.07;;;3.10;;
67861;SDS011;54665;51.462;6.698;2024-02-21T09:31:50;9.95;;;2.78;;
67861;SDS011;54665;51.462;6.698;2024-02-21T09:33:50;10.93;;;3.30;;
67861;SDS011;54665;51.462;6.698;2024-02-21T09:35:51;7.90;;;2.87;;
67861;SDS011;54665;51.462;6.698;2024-02-21T09:37:51;8.60;;;2.83;;
67861;SDS011;54665;51.462;6.698;2024-02-21T09:39:51;8.83;;;2.90;;
67861;SDS011;54665;51.462;6.698;2024-02-21T09:41:53;11.57;;;2.83;;
67861;SDS011;54665;51.462;6.698;2024-02-21T09:44:03;8.77;;;2.88;;
67861;SDS011;54665;51.462;6.698;2024-02-21T09:46:03;8.07;;;2.90;;
67861;SDS011;54665;51.462;6.698;2024-02-21T09:48:25;8.93;;;2.87;;
67861;SDS011;54665;51.462;6.698;2024-02-21T09:50:30;8.23;;;3.10;;
67861;SDS011;54665;51.462;6.698;2024-02-21T09:52:34;9.75;;;3.17;;
67861;SDS011;54665;51.462;6.698;2024-02-21T09:54:36;8.82;;;2.70;;
67861;SDS011;54665;51.462;6.698;2024-02-21T09:56:36;7.27;;;2.57;;
67861;SDS011;54665;51.462;6.698;2024-02-21T09:58:38;9.38;;;3.03;;
67861;SDS011;54665;51.462;6.698;2024-02-21T10:00:38;10.63;;;3.17;;
67861;SDS011;54665;51.462;6.698;2024-02-21T10:02:39;10.30;;;3.07;;
67861;SDS011;54665;51.462;6.698;2024-02-21T10:04:39;8.90;;;2.85;;
67861;SDS011;54665;51.462;6.698;2024-02-21T10:06:40;8.67;;;2.70;;
67861;SDS011;54665;51.462;6.698;2024-02-21T10:08:40;7.88;;;2.63;;
67861;SDS011;54665;51.462;6.698;2024-02-21T10:10:42;7.90;;;2.40;;
67861;SDS011;54665;51.462;6.698;2024-02-21T10:12:52;6.93;;;2.03;;
67861;SDS011;54665;51.462;6.698;2024-02-21T10:15:00;7.10;;;2.50;;
67861;SDS011;54665;51.462;6.698;2024-02-21T10:17:01;7.65;;;2.83;;
67861;SDS011;54665;51.462;6.698;2024-02-21T10:19:01;8.43;;;2.53;;
67861;SDS011;54665;51.462;6.698;2024-02-21T10:21:08;7.00;;;2.40;;
67861;SDS011;54665;51.462;6.698;2024-02-21T10:23:08;8.70;;;2.42;;
67861;SDS011;54665;51.462;6.698;2024-02-21T10:25:09;6.53;;;2.20;;
67861;SDS011;54665;51.462;6.698;2024-02-21T10:27:10;5.63;;;1.65;;
67861;SDS011;54665;51.462;6.698;2024-02-21T10:29:10;7.75;;;2.40;;
67861;SDS011;54665;51.462;6.698;2024-02-21T10:31:11;7.77;;;2.40;;
67861;SDS011;54665;51.462;6.698;2024-02-21T10:33:12;7.90;;;2.70;;
67861;SDS011;54665;51.462;6.698;2024-02-21T10:35:24;9.00;;;2.63;;
67861;SDS011;54665;51.462;6.698;2024-02-21T10:37:26;5.32;;;2.00;;
67861;SDS011;54665;51.462;6.698;2024-02-21T10:39:26;8.73;;;2.60;;
67861;SDS011;54665;51.462;6.698;2024-02-21T10:41:26;11.63;;;2.90;;
67861;SDS011;54665;51.462;6.698;2024-02-21T10:43:28;6.85;;;2.05;;
67861;SDS011;54665;51.462;6.698;2024-02-21T10:45:32;6.28;;;2.50;;
67861;SDS011;54665;51.462;6.698;2024-02-21T10:47:35;5.25;;;2.05;;
67861;SDS011;54665;51.462;6.698;2024-02-21T10:49:39;9.25;;;2.85;;
67861;SDS011;54665;51.462;6.698;2024-02-21T10:51:43;8.13;;;2.93;;
67861;SDS011;54665;51.462;6.698;2024-02-21T10:56:39;7.90;;;2.67;;
67861;SDS011;54665;51.462;6.698;2024-02-21T10:58:30;8.40;;;2.60;;
67861;SDS011;54665;51.462;6.698;2024-02-21T11:00:32;9.05;;;3.03;;
67861;SDS011;54665;51.462;6.698;2024-02-21T11:02:33;9.50;;;3.20;;
67861;SDS011;54665;51.462;6.698;2024-02-21T11:04:34;9.88;;;3.47;;
67861;SDS011;54665;51.462;6.698;2024-02-21T11:06:36;6.65;;;2.95;;
67861;SDS011;54665;51.462;6.698;2024-02-21T11:08:38;5.80;;;2.47;;
67861;SDS011;54665;51.462;6.698;2024-02-21T11:10:39;8.13;;;3.20;;
67861;SDS011;54665;51.462;6.698;2024-02-21T11:12:39;9.23;;;2.87;;
67861;SDS011;54665;51.462;6.698;2024-02-21T11:14:39;7.60;;;2.70;;
67861;SDS011;54665;51.462;6.698;2024-02-21T11:16:41;8.40;;;2.70;;
67861;SDS011;54665;51.462;6.698;2024-02-21T11:18:42;6.70;;;2.60;;
67861;SDS011;54665;51.462;6.698;2024-02-21T11:20:49;8.67;;;2.53;;
67861;SDS011;54665;51.462;6.698;2024-02-21T11:22:50;5.60;;;2.30;;
67861;SDS011;54665;51.462;6.698;2024-02-21T11:24:50;7.13;;;2.73;;
67861;SDS011;54665;51.462;6.698;2024-02-21T11:26:50;7.45;;;2.70;;
67861;SDS011;54665;51.462;6.698;2024-02-21T11:28:57;7.00;;;2.70;;
67861;SDS011;54665;51.462;6.698;2024-02-21T11:31:06;8.70;;;2.60;;
67861;SDS011;54665;51.462;6.698;2024-02-21T11:33:08;6.73;;;3.03;;
67861;SDS011;54665;51.462;6.698;2024-02-21T11:35:08;6.30;;;2.50;;
67861;SDS011;54665;51.462;6.698;2024-02-21T11:37:19;7.55;;;2.35;;
67861;SDS011;54665;51.462;6.698;2024-02-21T11:41:21;8.98;;;2.60;;
67861;SDS011;54665;51.462;6.698;2024-02-21T11:43:21;7.20;;;2.33;;
67861;SDS011;54665;51.462;6.698;2024-02-21T11:45:25;7.93;;;2.93;;
67861;SDS011;54665;51.462;6.698;2024-02-21T11:47:25;7.37;;;2.83;;
67861;SDS011;54665;51.462;6.698;2024-02-21T11:49:28;7.28;;;2.97;;
67861;SDS011;54665;51.462;6.698;2024-02-21T11:51:29;6.78;;;2.50;;
67861;SDS011;54665;51.462;6.698;2024-02-21T11:53:29;7.23;;;3.20;;
67861;SDS011;54665;51.462;6.698;2024-02-21T11:55:30;9.17;;;2.80;;
67861;SDS011;54665;51.462;6.698;2024-02-21T11:57:30;6.10;;;2.73;;
67861;SDS011;54665;51.462;6.698;2024-02-21T11:59:30;8.60;;;2.60;;
67861;SDS011;54665;51.462;6.698;2024-02-21T12:01:31;6.55;;;2.30;;
67861;SDS011;54665;51.462;6.698;2024-02-21T12:03:31;8.27;;;2.70;;
67861;SDS011;54665;51.462;6.698;2024-02-21T12:05:31;8.80;;;2.47;;